Time;durP1;ratioP1;P1;durP2;ratioP2;P2;SDS_P1;SDS_P2;PMS_P1;PMS_P2;Temp;Humidity;BMP_temperature;BMP_pressure;BME280_temperature;BME280_humidity;BME280_pressure;Samples;Min_cycle;Max_cycle;Signal;HPM_P1;HPM_P2
2021/04/29 00:02:25;;;;;;;11.05;8.15;;;11.30;74.70;;;;;;6126768;23;20505;-85
2021/04/29 00:04:51;;;;;;;11.25;8.07;;;11.30;75.20;;;;;;6127349;23;20311;-85
2021/04/29 00:07:16;;;;;;;12.77;8.77;;;11.20;75.40;;;;;;6126660;23;20014;-85
2021/04/29 00:09:42;;;;;;;11.65;8.35;;;11.20;76.00;;;;;;6126056;23;20048;-85
2021/04/29 00:12:08;;;;;;;11.43;8.27;;;11.20;76.20;;;;;;6126745;23;20033;-86
2021/04/29 00:14:34;;;;;;;11.20;8.13;;;11.20;76.60;;;;;;6127588;23;20390;-85
2021/04/29 00:17:00;;;;;;;12.32;8.07;;;11.10;76.00;;;;;;6126830;23;20073;-85
2021/04/29 00:19:28;;;;;;;12.30;8.73;;;11.10;75.90;;;;;;6127449;23;20450;-85
2021/04/29 00:22:03;;;;;;;12.68;8.35;;;11.10;76.10;;;;;;6126779;23;20030;-85
2021/04/29 00:24:28;;;;;;;12.60;8.50;;;11.10;76.10;;;;;;6126614;23;20042;-85
2021/04/29 00:26:57;;;;;;;11.10;8.48;;;11.00;76.20;;;;;;6126811;23;20026;-86
2021/04/29 00:29:29;;;;;;;12.05;7.85;;;11.00;76.40;;;;;;6126096;23;20014;-84
2021/04/29 00:32:04;;;;;;;11.18;7.93;;;11.00;76.80;;;;;;6126487;23;20096;-85
2021/04/29 00:34:30;;;;;;;12.60;8.35;;;11.00;77.00;;;;;;6127332;23;20025;-86
2021/04/29 00:37:00;;;;;;;11.90;8.30;;;10.90;77.00;;;;;;6125679;23;20021;-85
2021/04/29 00:39:26;;;;;;;11.98;8.63;;;10.90;76.70;;;;;;6126898;23;20100;-85
2021/04/29 00:41:51;;;;;;;12.27;8.63;;;10.90;77.10;;;;;;6126569;23;20029;-85
2021/04/29 00:44:18;;;;;;;12.35;8.98;;;10.90;77.10;;;;;;6126398;23;20014;-85
2021/04/29 00:46:44;;;;;;;12.55;7.68;;;10.90;77.00;;;;;;6126784;23;20024;-85
2021/04/29 00:49:10;;;;;;;13.77;8.68;;;10.90;76.50;;;;;;6126505;23;20395;-85
2021/04/29 00:51:35;;;;;;;11.55;8.15;;;10.90;76.40;;;;;;6126044;23;20021;-85
2021/04/29 00:54:01;;;;;;;11.13;7.93;;;10.80;76.50;;;;;;6127008;23;20018;-85
2021/04/29 00:56:27;;;;;;;11.57;8.20;;;10.80;76.30;;;;;;6126801;23;20099;-85
2021/04/29 00:58:53;;;;;;;13.20;7.93;;;10.80;76.30;;;;;;6125506;23;20454;-85
2021/04/29 01:01:21;;;;;;;14.50;8.57;;;10.80;76.40;;;;;;6127085;23;20026;-85
2021/04/29 01:03:59;;;;;;;13.13;8.63;;;10.70;75.80;;;;;;6126923;23;20018;-85
2021/04/29 01:06:34;;;;;;;11.43;8.02;;;10.80;76.40;;;;;;6126267;23;20021;-85
2021/04/29 01:09:10;;;;;;;13.82;9.02;;;10.70;76.50;;;;;;6126937;23;20024;-85
2021/04/29 01:11:38;;;;;;;12.90;8.57;;;10.70;76.50;;;;;;6125966;23;20025;-86
2021/04/29 01:14:05;;;;;;;12.18;8.98;;;10.70;76.60;;;;;;6126705;23;20022;-85
2021/04/29 01:16:33;;;;;;;14.90;8.88;;;10.70;76.70;;;;;;6126589;23;20025;-86
2021/04/29 01:18:59;;;;;;;12.82;8.52;;;10.70;76.70;;;;;;6125348;23;20069;-85
2021/04/29 01:21:28;;;;;;;12.60;8.38;;;10.70;76.60;;;;;;6126431;23;20101;-86
2021/04/29 01:24:23;;;;;;;14.70;9.00;;;10.60;76.30;;;;;;6125627;23;20014;-86
2021/04/29 01:26:50;;;;;;;12.82;8.52;;;10.60;76.60;;;;;;6125584;23;20022;-85
2021/04/29 01:29:25;;;;;;;12.52;9.13;;;10.60;76.90;;;;;;6126696;23;20018;-85
2021/04/29 01:31:53;;;;;;;14.52;8.85;;;10.60;76.70;;;;;;6126671;23;20072;-85
2021/04/29 01:34:25;;;;;;;11.18;8.60;;;10.60;76.30;;;;;;6100062;23;20018;-85
2021/04/29 01:36:53;;;;;;;13.30;9.13;;;10.60;77.00;;;;;;6125710;23;20564;-84
2021/04/29 01:39:19;;;;;;;13.63;8.57;;;10.60;77.40;;;;;;6127717;23;20018;-85
2021/04/29 01:41:48;;;;;;;11.93;8.82;;;10.60;77.10;;;;;;6125064;23;20030;-85
2021/04/29 01:44:15;;;;;;;11.95;8.45;;;10.60;77.30;;;;;;6126836;23;20018;-85
2021/04/29 01:46:42;;;;;;;12.50;8.95;;;10.50;77.20;;;;;;6124940;23;20450;-84
2021/04/29 01:49:10;;;;;;;12.43;8.75;;;10.50;77.60;;;;;;6126201;23;20013;-86
2021/04/29 01:51:38;;;;;;;12.18;8.95;;;10.50;77.70;;;;;;6126078;23;20022;-85
2021/04/29 01:54:09;;;;;;;13.50;8.90;;;10.50;77.90;;;;;;6125333;23;20022;-85
2021/04/29 01:56:37;;;;;;;11.57;8.40;;;10.50;77.70;;;;;;6125844;23;20026;-85
2021/04/29 01:59:07;;;;;;;12.18;9.02;;;10.50;77.80;;;;;;6126306;23;20141;-84
2021/04/29 02:01:37;;;;;;;15.35;9.57;;;10.50;77.90;;;;;;6124944;23;20069;-85
2021/04/29 02:04:03;;;;;;;13.82;10.07;;;10.50;78.00;;;;;;6117018;23;20018;-85
2021/04/29 02:06:29;;;;;;;13.38;8.90;;;10.50;77.90;;;;;;6125875;23;20101;-85
2021/04/29 02:08:55;;;;;;;12.38;8.80;;;10.50;78.10;;;;;;6124895;23;20049;-85
2021/04/29 02:11:21;;;;;;;13.27;8.80;;;10.40;78.00;;;;;;6126317;23;20050;-85
2021/04/29 02:13:49;;;;;;;13.55;9.35;;;10.40;77.90;;;;;;6125736;23;20022;-85
2021/04/29 02:16:41;;;;;;;14.30;9.52;;;10.40;78.20;;;;;;6125297;23;20018;-86
2021/04/29 02:19:10;;;;;;;15.45;9.40;;;10.40;78.10;;;;;;6126243;23;20093;-85
2021/04/29 02:21:40;;;;;;;13.18;8.95;;;10.40;78.00;;;;;;6125321;23;20481;-85
2021/04/29 02:24:08;;;;;;;13.52;9.48;;;10.40;78.10;;;;;;6125054;23;20020;-85
2021/04/29 02:26:34;;;;;;;14.27;9.65;;;10.40;77.70;;;;;;6125578;23;20045;-84
2021/04/29 02:29:04;;;;;;;16.88;10.02;;;10.40;77.90;;;;;;6125204;23;20446;-85
2021/04/29 02:31:30;;;;;;;16.33;10.55;;;10.40;77.90;;;;;;6126281;23;20018;-84
2021/04/29 02:33:56;;;;;;;12.73;9.60;;;10.30;77.60;;;;;;6100285;23;20089;-84
2021/04/29 02:36:22;;;;;;;13.30;9.60;;;10.40;78.00;;;;;;6125120;23;20044;-85
2021/04/29 02:38:48;;;;;;;16.42;10.05;;;10.30;77.90;;;;;;6125760;23;20025;-85
2021/04/29 02:41:17;;;;;;;16.75;10.45;;;10.30;77.60;;;;;;6125241;23;20458;-85
2021/04/29 02:43:44;;;;;;;14.30;9.82;;;10.30;77.20;;;;;;6124698;23;20093;-85
2021/04/29 02:46:31;;;;;;;15.45;10.27;;;10.30;77.70;;;;;;6125722;23;20020;-85
2021/04/29 02:48:58;;;;;;;16.63;10.55;;;10.30;77.30;;;;;;6125782;23;20386;-85
2021/04/29 02:51:24;;;;;;;15.25;10.00;;;10.30;78.00;;;;;;6124924;23;20021;-85
2021/04/29 02:53:50;;;;;;;17.58;10.98;;;10.30;78.10;;;;;;6125579;23;20446;-85
2021/04/29 02:56:16;;;;;;;13.40;9.63;;;10.30;78.30;;;;;;6124917;23;20076;-85
2021/04/29 02:58:43;;;;;;;14.48;10.48;;;10.20;78.40;;;;;;6124649;23;20037;-86
2021/04/29 03:01:09;;;;;;;15.85;10.63;;;10.30;78.60;;;;;;6126062;23;20022;-85
2021/04/29 03:03:35;;;;;;;14.38;10.88;;;10.20;78.50;;;;;;6125169;23;20106;-84
2021/04/29 03:06:01;;;;;;;15.75;11.07;;;10.20;78.60;;;;;;6125055;23;20028;-84
2021/04/29 03:08:28;;;;;;;18.15;11.23;;;10.20;78.80;;;;;;6125898;23;20018;-84
2021/04/29 03:10:54;;;;;;;15.95;11.65;;;10.20;78.80;;;;;;6125263;23;20026;-86
2021/04/29 03:13:19;;;;;;;14.98;11.70;;;10.20;78.80;;;;;;6125001;23;20020;-85
2021/04/29 03:15:45;;;;;;;16.25;11.27;;;10.20;79.20;;;;;;6125257;23;20200;-85
2021/04/29 03:18:11;;;;;;;19.73;12.50;;;10.20;79.10;;;;;;6124661;23;20439;-86
2021/04/29 03:20:36;;;;;;;16.83;11.85;;;10.10;79.10;;;;;;6124917;23;20022;-84
2021/04/29 03:23:02;;;;;;;17.35;10.98;;;10.10;79.20;;;;;;6125166;23;20026;-86
2021/04/29 03:25:28;;;;;;;17.23;11.23;;;10.10;78.90;;;;;;6125018;23;20085;-84
2021/04/29 03:27:53;;;;;;;16.67;11.30;;;10.10;78.60;;;;;;6125577;23;20115;-85
2021/04/29 03:30:19;;;;;;;17.05;11.70;;;10.00;78.70;;;;;;6125848;23;20022;-84
2021/04/29 03:32:45;;;;;;;16.90;11.32;;;10.00;78.70;;;;;;6124209;23;20044;-84
2021/04/29 03:35:11;;;;;;;16.88;11.23;;;10.00;78.60;;;;;;6125610;23;20490;-85
2021/04/29 03:37:37;;;;;;;20.58;12.05;;;9.90;78.70;;;;;;6126976;23;20334;-85
2021/04/29 03:40:03;;;;;;;18.73;12.68;;;9.90;78.50;;;;;;6126473;23;20347;-85
2021/04/29 03:42:29;;;;;;;17.13;11.63;;;9.90;78.70;;;;;;6127780;23;20021;-85
2021/04/29 03:44:54;;;;;;;19.65;12.68;;;9.90;78.50;;;;;;6127604;23;20029;-85
2021/04/29 03:47:20;;;;;;;16.58;12.07;;;9.90;78.90;;;;;;6126315;23;20020;-85
2021/04/29 03:49:46;;;;;;;16.27;12.20;;;9.80;79.20;;;;;;6127235;23;20021;-85
2021/04/29 03:52:12;;;;;;;16.88;11.57;;;9.90;79.00;;;;;;6127845;23;20068;-84
2021/04/29 03:54:37;;;;;;;17.73;12.07;;;9.80;79.00;;;;;;6125444;23;20018;-84
2021/04/29 03:57:03;;;;;;;20.23;12.15;;;9.80;78.80;;;;;;6127320;23;20461;-85
2021/04/29 03:59:31;;;;;;;16.83;12.13;;;9.80;78.90;;;;;;6127144;23;20029;-85
2021/04/29 04:01:59;;;;;;;18.88;12.43;;;9.80;79.20;;;;;;6125715;23;20025;-85
2021/04/29 04:04:25;;;;;;;19.08;12.52;;;9.80;78.90;;;;;;6127542;23;20014;-85
2021/04/29 04:06:50;;;;;;;18.45;12.57;;;9.70;78.90;;;;;;6126125;23;20109;-85
2021/04/29 04:09:16;;;;;;;20.63;13.75;;;9.70;78.90;;;;;;6126477;23;20025;-85
2021/04/29 04:11:42;;;;;;;16.63;12.68;;;9.70;78.60;;;;;;6126668;23;20346;-85
2021/04/29 04:14:07;;;;;;;16.08;12.38;;;9.70;78.70;;;;;;6127003;23;20038;-85
2021/04/29 04:16:33;;;;;;;17.13;12.32;;;9.70;78.80;;;;;;6125885;23;20022;-85
2021/04/29 04:18:59;;;;;;;19.08;12.88;;;9.70;79.20;;;;;;6126752;23;20434;-84
2021/04/29 04:21:28;;;;;;;18.92;13.02;;;9.70;79.60;;;;;;6126791;23;20049;-85
2021/04/29 04:23:54;;;;;;;19.95;13.48;;;9.70;79.40;;;;;;6127135;23;20041;-85
2021/04/29 04:26:20;;;;;;;16.98;12.68;;;9.70;79.60;;;;;;6126890;23;20097;-85
2021/04/29 04:28:46;;;;;;;17.00;12.77;;;9.60;79.70;;;;;;6125637;23;20863;-84
2021/04/29 04:31:11;;;;;;;16.98;12.55;;;9.60;79.90;;;;;;6127236;23;20018;-84
2021/04/29 04:33:37;;;;;;;16.27;12.73;;;9.60;79.80;;;;;;6126087;23;20426;-85
2021/04/29 04:36:05;;;;;;;16.42;12.30;;;9.60;79.70;;;;;;6125491;23;20018;-85
2021/04/29 04:38:30;;;;;;;19.67;12.27;;;9.60;79.60;;;;;;6126788;23;20110;-86
2021/04/29 04:40:56;;;;;;;15.80;11.68;;;9.60;79.40;;;;;;6127150;23;20025;-85
2021/04/29 04:43:22;;;;;;;17.67;12.73;;;9.60;79.50;;;;;;6126617;23;20021;-85
2021/04/29 04:45:47;;;;;;;16.55;12.30;;;9.60;79.60;;;;;;6125562;23;20391;-88
2021/04/29 04:48:13;;;;;;;17.92;12.95;;;9.50;79.60;;;;;;6126768;23;20022;-90
2021/04/29 04:50:40;;;;;;;17.73;12.27;;;9.50;79.80;;;;;;6125550;23;20446;-90
2021/04/29 04:53:09;;;;;;;16.08;12.20;;;9.50;79.50;;;;;;6126929;23;20092;-91
2021/04/29 04:55:35;;;;;;;19.33;12.45;;;9.50;79.50;;;;;;6127165;23;20029;-91
2021/04/29 04:58:21;;;;;;;18.50;12.68;;;9.50;79.20;;;;;;6124950;23;20085;-79
2021/04/29 05:00:50;;;;;;;21.38;13.07;;;9.40;79.50;;;;;;6126244;23;20379;-80
2021/04/29 05:03:17;;;;;;;17.95;12.50;;;9.40;79.60;;;;;;6126398;23;20022;-80
2021/04/29 05:05:45;;;;;;;19.10;12.55;;;9.40;79.60;;;;;;6125707;23;20068;-86
2021/04/29 05:08:11;;;;;;;17.30;12.40;;;9.40;79.90;;;;;;6126550;23;20406;-84
2021/04/29 05:10:37;;;;;;;16.63;11.93;;;9.40;79.90;;;;;;6126303;23;20028;-86
2021/04/29 05:13:04;;;;;;;20.17;12.48;;;9.40;79.80;;;;;;6122477;23;20403;-85
2021/04/29 05:15:31;;;;;;;17.08;12.65;;;9.40;79.70;;;;;;6126278;23;20026;-86
2021/04/29 05:17:57;;;;;;;18.15;12.52;;;9.40;79.60;;;;;;6125086;23;20018;-83
2021/04/29 05:20:23;;;;;;;17.73;12.93;;;9.30;79.50;;;;;;6126050;23;20018;-85
2021/04/29 05:22:50;;;;;;;18.60;13.35;;;9.40;79.60;;;;;;6125727;23;20018;-85
2021/04/29 05:25:16;;;;;;;18.75;13.60;;;9.30;79.70;;;;;;6126109;23;20032;-84
2021/04/29 05:27:42;;;;;;;19.67;13.48;;;9.30;80.10;;;;;;6126629;23;20014;-85
2021/04/29 05:30:08;;;;;;;18.63;14.23;;;9.30;80.20;;;;;;6126974;23;20040;-84
2021/04/29 05:32:34;;;;;;;18.52;13.15;;;9.30;80.20;;;;;;6125192;23;20022;-85
2021/04/29 05:34:59;;;;;;;21.52;15.10;;;9.30;80.30;;;;;;6127052;23;20064;-85
2021/04/29 05:37:25;;;;;;;19.40;14.00;;;9.30;80.30;;;;;;6126941;23;20018;-85
2021/04/29 05:39:52;;;;;;;21.40;15.10;;;9.30;80.40;;;;;;6125538;23;20049;-83
2021/04/29 05:42:21;;;;;;;23.08;13.85;;;9.30;80.50;;;;;;6126711;23;20022;-82
2021/04/29 05:44:47;;;;;;;20.08;14.35;;;9.30;81.20;;;;;;6126575;23;20014;-83
2021/04/29 05:47:13;;;;;;;21.77;14.98;;;9.30;80.40;;;;;;6124933;23;20021;-83
2021/04/29 05:49:41;;;;;;;20.85;14.80;;;9.30;80.90;;;;;;6126534;23;20025;-83
2021/04/29 05:52:08;;;;;;;22.42;15.07;;;9.40;80.90;;;;;;6126140;23;20492;-83
2021/04/29 05:54:34;;;;;;;21.70;14.82;;;9.40;80.90;;;;;;6125675;23;20017;-83
2021/04/29 05:57:01;;;;;;;19.90;15.27;;;9.40;80.90;;;;;;6126420;23;20022;-84
2021/04/29 05:59:26;;;;;;;19.98;15.20;;;9.40;80.90;;;;;;6125395;23;20025;-82
2021/04/29 06:01:52;;;;;;;18.38;14.23;;;9.40;80.80;;;;;;6125211;23;20018;-83
2021/04/29 06:04:18;;;;;;;22.42;14.68;;;9.40;80.70;;;;;;6126793;23;20334;-83
2021/04/29 06:06:45;;;;;;;21.50;14.68;;;9.50;80.70;;;;;;6126345;23;20022;-83
2021/04/29 06:09:11;;;;;;;20.92;14.60;;;9.50;80.50;;;;;;6125226;23;20018;-82
2021/04/29 06:11:39;;;;;;;20.85;15.35;;;9.50;80.20;;;;;;6125941;23;20022;-82
2021/04/29 06:14:05;;;;;;;19.33;15.18;;;9.50;80.40;;;;;;6125665;23;20025;-82
2021/04/29 06:16:30;;;;;;;21.67;14.77;;;9.60;80.80;;;;;;6126654;23;20022;-82
2021/04/29 06:18:57;;;;;;;23.63;16.88;;;9.60;80.30;;;;;;6126801;23;20308;-83
2021/04/29 06:21:22;;;;;;;20.67;15.40;;;9.60;80.40;;;;;;6099406;23;20034;-82
2021/04/29 06:23:48;;;;;;;19.33;14.90;;;9.70;80.70;;;;;;6126196;23;20400;-83
2021/04/29 06:26:13;;;;;;;28.33;16.30;;;9.70;80.60;;;;;;6126348;23;20021;-82
2021/04/29 06:28:39;;;;;;;21.13;15.73;;;9.70;80.70;;;;;;6125096;23;20450;-82
2021/04/29 06:31:05;;;;;;;23.33;15.63;;;9.80;80.70;;;;;;6125933;23;20046;-82
2021/04/29 06:33:30;;;;;;;21.55;14.73;;;9.80;80.70;;;;;;6126113;23;20021;-82
2021/04/29 06:35:56;;;;;;;24.00;17.92;;;9.80;80.50;;;;;;6125730;23;20025;-82
2021/04/29 06:38:23;;;;;;;22.48;15.23;;;9.80;80.30;;;;;;6126231;23;20018;-82
2021/04/29 06:40:49;;;;;;;20.55;15.35;;;9.90;80.50;;;;;;6125618;23;20081;-82
2021/04/29 06:43:14;;;;;;;20.42;15.32;;;9.90;80.30;;;;;;6124275;23;20367;-85
2021/04/29 06:45:41;;;;;;;20.63;14.65;;;9.90;80.20;;;;;;6124653;23;20077;-82
2021/04/29 06:48:10;;;;;;;19.83;15.32;;;9.90;80.00;;;;;;6124749;23;20026;-82
2021/04/29 06:50:36;;;;;;;19.50;15.15;;;9.90;80.30;;;;;;6124410;23;20040;-82
2021/04/29 06:53:03;;;;;;;22.92;15.20;;;10.00;80.00;;;;;;6123982;23;20478;-82
2021/04/29 06:55:45;;;;;;;23.02;16.58;;;10.00;80.20;;;;;;6123799;23;20073;-83
2021/04/29 06:58:11;;;;;;;22.10;16.13;;;10.10;80.40;;;;;;6124873;23;20018;-83
2021/04/29 07:00:42;;;;;;;23.42;17.00;;;10.00;80.40;;;;;;6122862;23;20093;-84
2021/04/29 07:03:14;;;;;;;25.10;16.80;;;10.10;80.40;;;;;;6125531;23;20387;-82
2021/04/29 07:05:48;;;;;;;20.73;15.60;;;10.10;80.40;;;;;;6125368;23;20084;-84
2021/04/29 07:08:17;;;;;;;20.35;15.55;;;10.10;80.50;;;;;;6119184;23;20022;-82
2021/04/29 07:11:00;;;;;;;23.48;17.55;;;10.20;80.60;;;;;;6123312;23;20022;-84
2021/04/29 07:13:26;;;;;;;22.38;16.42;;;10.20;80.70;;;;;;6112759;23;20053;-84
2021/04/29 07:15:54;;;;;;;25.10;17.88;;;10.20;80.60;;;;;;6126912;23;20022;-85
2021/04/29 07:18:25;;;;;;;27.95;17.63;;;10.20;80.90;;;;;;6126788;23;20029;-83
2021/04/29 07:20:54;;;;;;;24.08;16.00;;;10.30;81.10;;;;;;6127015;23;20030;-84
2021/04/29 07:23:21;;;;;;;20.90;15.35;;;10.30;80.90;;;;;;6126962;23;20022;-84
2021/04/29 07:25:47;;;;;;;21.90;15.52;;;10.30;80.90;;;;;;6126218;23;20077;-84
2021/04/29 07:28:15;;;;;;;25.17;17.40;;;10.30;80.80;;;;;;6126441;23;20018;-83
2021/04/29 07:31:23;;;;;;;23.80;16.05;;;10.30;80.90;;;;;;6124879;23;20385;-84
2021/04/29 07:34:07;;;;;;;22.50;16.05;;;10.40;81.00;;;;;;6126096;23;20092;-85
2021/04/29 07:36:33;;;;;;;23.75;16.17;;;10.40;80.90;;;;;;6126860;23;20022;-83
2021/04/29 07:38:59;;;;;;;22.23;15.88;;;10.40;81.00;;;;;;6125922;23;20311;-83
2021/04/29 07:41:26;;;;;;;21.38;15.70;;;10.40;80.90;;;;;;6127038;23;20022;-84
2021/04/29 07:43:56;;;;;;;25.08;16.20;;;10.40;81.00;;;;;;6126958;23;20093;-84
2021/04/29 07:46:28;;;;;;;20.98;15.50;;;10.50;81.00;;;;;;6126423;23;20093;-82
2021/04/29 07:49:18;;;;;;;23.92;16.25;;;10.50;81.10;;;;;;6126120;23;20018;-82
2021/04/29 07:55:28;;;;;;;20.85;14.63;;;10.50;80.90;;;;;;6125637;23;20033;-84
2021/04/29 07:58:23;;;;;;;20.10;15.98;;;10.40;80.80;;;;;;6127025;23;20018;-84
2021/04/29 08:00:49;;;;;;;22.70;16.02;;;10.50;80.50;;;;;;6006435;23;20027;-84
2021/04/29 08:03:21;;;;;;;20.08;14.38;;;10.50;80.80;;;;;;6008690;23;20340;-85
2021/04/29 08:05:51;;;;;;;27.83;16.67;;;10.50;80.70;;;;;;6090925;23;20093;-83
2021/04/29 08:08:24;;;;;;;20.23;15.50;;;10.50;81.10;;;;;;6124766;23;20022;-83
2021/04/29 08:11:02;;;;;;;24.40;15.97;;;10.50;81.10;;;;;;6126522;23;20465;-84
2021/04/29 08:13:55;;;;;;;26.33;18.15;;;10.60;81.30;;;;;;6124883;23;20391;-84
2021/04/29 08:17:18;;;;;;;25.88;16.98;;;10.60;81.80;;;;;;6125698;23;20022;-84
2021/04/29 08:20:00;;;;;;;29.73;17.33;;;10.60;82.00;;;;;;6077804;23;20463;-84
2021/04/29 08:22:27;;;;;;;26.02;17.95;;;10.60;82.20;;;;;;6109493;23;20018;-84
2021/04/29 08:25:27;;;;;;;21.70;15.60;;;10.60;82.40;;;;;;6104611;23;20069;-84
2021/04/29 08:27:56;;;;;;;22.35;14.93;;;10.60;82.20;;;;;;6124757;23;20040;-84
2021/04/29 08:30:34;;;;;;;24.00;16.90;;;10.70;82.10;;;;;;6125345;23;20399;-85
2021/04/29 08:36:43;;;;;;;20.88;15.50;;;10.70;82.40;;;;;;6125357;23;20335;-85
2021/04/29 08:42:26;;;;;;;22.60;16.30;;;10.70;82.40;;;;;;6125281;23;20022;-84
2021/04/29 08:45:11;;;;;;;;;;;;;;;;;;;;;
2021/04/29 08:47:53;;;;;;;19.80;13.73;;;10.70;82.80;;;;;;6051549;23;20022;-84
2021/04/29 08:50:34;;;;;;;21.80;15.88;;;10.70;82.60;;;;;;6124324;23;20021;-83
2021/04/29 08:53:45;;;;;;;;;;;;;;;;;;;;;
2021/04/29 08:56:44;;;;;;;21.17;15.32;;;10.70;82.30;;;;;;6075011;23;20037;-83
2021/04/29 08:59:22;;;;;;;21.30;14.65;;;10.70;82.30;;;;;;6126338;23;20111;-84
2021/04/29 09:01:49;;;;;;;27.02;17.08;;;10.60;82.20;;;;;;6125639;23;20045;-84
2021/04/29 09:04:17;;;;;;;22.50;15.60;;;10.70;82.40;;;;;;6125815;23;20439;-84
2021/04/29 09:06:46;;;;;;;23.17;16.67;;;10.60;82.50;;;;;;6126207;23;20076;-84
2021/04/29 09:09:13;;;;;;;21.75;15.50;;;10.60;82.60;;;;;;6126313;23;20024;-84
2021/04/29 09:11:51;;;;;;;19.20;15.10;;;10.60;82.50;;;;;;6125574;23;20018;-84
2021/04/29 09:14:32;;;;;;;25.83;17.95;;;10.60;82.40;;;;;;6126687;23;20433;-83
2021/04/29 09:16:58;;;;;;;26.67;18.48;;;10.60;82.80;;;;;;6125110;23;20050;-84
2021/04/29 09:19:26;;;;;;;26.92;17.67;;;10.60;83.00;;;;;;6126385;23;20046;-84
2021/04/29 09:21:52;;;;;;;25.40;16.85;;;10.60;83.10;;;;;;6126083;23;20026;-84
2021/04/29 09:24:29;;;;;;;27.45;17.05;;;10.60;83.10;;;;;;6124816;23;20025;-84
2021/04/29 09:26:55;;;;;;;20.92;14.93;;;10.60;83.20;;;;;;6121773;23;20032;-84
2021/04/29 09:29:20;;;;;;;20.67;15.90;;;10.50;82.80;;;;;;6126058;23;20018;-84
2021/04/29 09:31:49;;;;;;;21.70;15.43;;;10.50;82.50;;;;;;6125227;23;20021;-84
2021/04/29 09:34:18;;;;;;;25.05;17.05;;;10.50;82.20;;;;;;6126457;23;20017;-84
2021/04/29 09:36:46;;;;;;;26.67;18.38;;;10.50;82.90;;;;;;6126394;23;20036;-84
2021/04/29 09:39:19;;;;;;;23.10;16.08;;;10.50;83.30;;;;;;6125340;23;20438;-84
2021/04/29 09:42:31;;;;;;;20.25;15.88;;;10.50;83.10;;;;;;6125202;23;20045;-84
2021/04/29 09:48:39;;;;;;;22.05;16.50;;;10.50;82.90;;;;;;6125691;23;20056;-84
2021/04/29 09:51:53;;;;;;;27.05;19.02;;;10.50;82.80;;;;;;6126223;23;20081;-83
2021/04/29 09:55:03;;;;;;;;;;;;;;;;;;;;;
2021/04/29 09:58:41;;;;;;;;;;;;;;;;;;;;;
2021/04/29 10:01:18;;;;;;;22.67;16.23;;;10.50;83.30;;;;;;6123500;23;20342;-83
2021/04/29 10:03:51;;;;;;;27.73;18.55;;;10.40;83.20;;;;;;6125581;23;20014;-83
2021/04/29 10:06:22;;;;;;;27.83;19.13;;;10.40;84.00;;;;;;6125215;23;20097;-82
2021/04/29 10:08:50;;;;;;;29.23;20.40;;;10.50;84.70;;;;;;6124435;23;20014;-83
2021/04/29 10:11:26;;;;;;;25.90;18.02;;;10.50;85.00;;;;;;6126262;23;20018;-84
2021/04/29 10:13:57;;;;;;;22.67;17.45;;;10.40;85.50;;;;;;6124359;23;20026;-83
2021/04/29 10:16:28;;;;;;;25.40;17.25;;;10.40;84.70;;;;;;6124558;23;20041;-85
2021/04/29 10:18:55;;;;;;;27.33;18.48;;;10.40;84.60;;;;;;6125555;23;20350;-84
2021/04/29 10:21:22;;;;;;;29.75;19.42;;;10.40;84.60;;;;;;6124613;23;20022;-87
2021/04/29 10:23:59;;;;;;;24.23;16.85;;;10.40;85.30;;;;;;6126762;23;20316;-86
2021/04/29 10:37:24;;;;;;;23.83;16.00;;;10.30;85.60;;;;;;6001791;23;20027;-85
2021/04/29 10:40:34;;;;;;;23.92;18.95;;;10.30;85.30;;;;;;6125402;23;20457;-86
2021/04/29 10:46:16;;;;;;;30.13;21.48;;;10.30;85.90;;;;;;6153889;23;20025;-86
2021/04/29 10:49:05;;;;;;;26.15;19.52;;;10.30;86.40;;;;;;6153883;23;20024;-84
2021/04/29 10:51:45;;;;;;;23.45;16.77;;;10.30;86.30;;;;;;6153699;23;20029;-87
2021/04/29 10:54:21;;;;;;;27.05;20.13;;;10.20;86.10;;;;;;6155244;23;20018;-87
2021/04/29 10:57:05;;;;;;;24.30;18.60;;;10.20;86.50;;;;;;6153851;23;20450;-85
2021/04/29 10:59:52;;;;;;;23.00;18.20;;;10.20;86.70;;;;;;6155145;23;20099;-86
2021/04/29 11:02:32;;;;;;;26.80;20.55;;;10.20;86.40;;;;;;6154892;23;20026;-87
2021/04/29 11:04:58;;;;;;;25.10;19.52;;;10.20;86.60;;;;;;6154295;23;20398;-85
2021/04/29 11:07:26;;;;;;;24.50;17.13;;;10.20;86.30;;;;;;6154997;23;20026;-84
2021/04/29 11:10:10;;;;;;;20.80;16.45;;;10.20;86.10;;;;;;6153515;23;20049;-84
2021/04/29 11:12:53;;;;;;;21.42;15.88;;;10.20;85.40;;;;;;6149711;23;20030;-85
2021/04/29 11:15:29;;;;;;;21.50;17.15;;;10.20;85.30;;;;;;6125861;23;20022;-85
2021/04/29 11:18:05;;;;;;;22.05;18.15;;;10.20;85.40;;;;;;6123598;23;20426;-85
2021/04/29 11:21:16;;;;;;;21.45;16.95;;;10.20;85.30;;;;;;6124686;23;20462;-84
2021/04/29 11:27:55;;;;;;;20.48;15.93;;;10.20;85.50;;;;;;5951897;24;20028;-89
2021/04/29 11:30:24;;;;;;;20.88;16.17;;;10.20;84.20;;;;;;6097668;23;20108;-88
2021/04/29 11:33:22;;;;;;;20.33;16.67;;;10.20;84.50;;;;;;6124337;23;20026;-88
2021/04/29 11:35:54;;;;;;;24.33;18.52;;;10.20;84.60;;;;;;6124411;23;20014;-90
2021/04/29 11:38:26;;;;;;;19.13;15.82;;;10.20;84.60;;;;;;6125545;23;20029;-88
2021/04/29 11:40:54;;;;;;;22.05;17.08;;;10.20;84.30;;;;;;6124373;23;20435;-87
2021/04/29 11:44:22;;;;;;;22.63;16.52;;;10.30;84.20;;;;;;6125357;23;20037;-88
2021/04/29 11:46:54;;;;;;;22.73;16.38;;;10.20;83.50;;;;;;6007181;23;20020;-89
2021/04/29 11:49:20;;;;;;;22.03;16.30;;;10.20;83.80;;;;;;6008604;23;20039;-89
2021/04/29 11:51:55;;;;;;;19.95;16.02;;;10.30;83.60;;;;;;6100481;23;20025;-86
2021/04/29 11:54:21;;;;;;;18.17;14.95;;;10.30;83.80;;;;;;6125614;23;20014;-88
2021/04/29 11:56:49;;;;;;;19.20;14.85;;;10.30;83.20;;;;;;6125440;23;20088;-88
2021/04/29 11:59:56;;;;;;;20.80;15.95;;;10.30;83.40;;;;;;6126446;23;20033;-89
2021/04/29 12:02:27;;;;;;;19.60;15.52;;;10.20;82.80;;;;;;6009429;23;20027;-88
2021/04/29 12:04:53;;;;;;;20.33;17.08;;;10.30;83.30;;;;;;6111908;23;20029;-88
2021/04/29 12:07:20;;;;;;;20.63;15.65;;;10.30;83.70;;;;;;6126619;23;20331;-85
2021/04/29 12:09:52;;;;;;;18.42;15.98;;;10.30;84.00;;;;;;6126049;23;20049;-88
2021/04/29 12:12:24;;;;;;;19.42;15.77;;;10.40;84.30;;;;;;6127327;23;20018;-87
2021/04/29 12:14:54;;;;;;;19.83;15.20;;;10.40;84.30;;;;;;6126471;23;20022;-87
2021/04/29 12:17:24;;;;;;;20.98;16.00;;;10.30;84.90;;;;;;6127254;23;20018;-86
2021/04/29 12:19:59;;;;;;;17.80;13.85;;;10.30;85.70;;;;;;6125110;23;20030;-87
2021/04/29 12:23:12;;;;;;;19.10;14.15;;;10.40;85.30;;;;;;6126826;23;20014;-85
2021/04/29 12:26:16;;;;;;;17.52;14.80;;;10.30;85.00;;;;;;6126659;23;20044;-86
2021/04/29 12:29:21;;;;;;;20.25;14.68;;;10.30;85.30;;;;;;6113860;23;20017;-87
2021/04/29 12:35:35;;;;;;;20.92;14.48;;;10.30;85.00;;;;;;6125006;23;20032;-84
2021/04/29 12:38:30;;;;;;;18.77;14.77;;;10.30;85.70;;;;;;6125773;23;20026;-84
2021/04/29 12:41:28;;;;;;;18.15;14.57;;;10.30;86.40;;;;;;6124673;23;20029;-84
2021/04/29 12:44:03;;;;;;;19.40;14.32;;;10.30;86.50;;;;;;6125759;23;20018;-88
2021/04/29 12:46:46;;;;;;;17.70;13.63;;;10.30;86.60;;;;;;6125839;23;20022;-87
2021/04/29 12:49:18;;;;;;;17.13;13.40;;;10.30;86.60;;;;;;6125632;23;20018;-85
2021/04/29 12:52:16;;;;;;;20.13;14.57;;;10.20;86.50;;;;;;6126091;23;20018;-85
2021/04/29 12:55:28;;;;;;;17.17;13.13;;;10.20;86.50;;;;;;6111249;23;20026;-87
2021/04/29 12:58:54;;;;;;;16.70;12.40;;;10.20;86.70;;;;;;6007893;23;20381;-84
2021/04/29 13:02:01;;;;;;;14.70;12.15;;;10.20;86.60;;;;;;5954914;23;20047;-85
2021/04/29 13:04:51;;;;;;;;;;;10.20;86.40;;;;;;6006952;23;20484;-86
2021/04/29 13:08:08;;;;;;;15.20;11.90;;;10.10;86.20;;;;;;6006221;23;19925;-84
2021/04/29 13:14:55;;;;;;;13.85;11.02;;;10.10;86.40;;;;;;6036127;23;20035;-84
2021/04/29 13:17:31;;;;;;;15.10;12.13;;;10.10;86.60;;;;;;6027255;23;20276;-83
2021/04/29 13:20:34;;;;;;;13.65;11.60;;;10.10;86.60;;;;;;6125993;23;20104;-84
2021/04/29 13:24:00;;;;;;;16.45;12.50;;;10.10;86.40;;;;;;6123973;23;20060;-84
2021/04/29 13:26:51;;;;;;;15.80;12.48;;;10.10;87.00;;;;;;6125349;23;20350;-84
2021/04/29 13:29:16;;;;;;;17.30;13.40;;;10.10;87.10;;;;;;6123029;23;20014;-83
2021/04/29 13:31:45;;;;;;;16.05;13.60;;;10.10;87.10;;;;;;6124682;23;20324;-83
2021/04/29 13:34:14;;;;;;;16.10;12.02;;;10.10;87.30;;;;;;6122087;23;20026;-84
2021/04/29 13:36:40;;;;;;;16.98;12.68;;;10.10;87.10;;;;;;6125535;23;20022;-86
2021/04/29 13:39:06;;;;;;;16.55;13.30;;;10.10;87.20;;;;;;6124282;23;20021;-84
2021/04/29 13:41:32;;;;;;;14.82;12.38;;;10.10;87.10;;;;;;6098612;23;20469;-88
2021/04/29 13:43:57;;;;;;;15.13;12.52;;;10.10;87.20;;;;;;6125488;23;20025;-88
2021/04/29 13:46:23;;;;;;;16.42;12.98;;;10.10;87.20;;;;;;6124543;23;20026;-88